createdAt,value
2018-09-04T00:00:29.279Z,81.04
2018-09-04T00:01:29.289Z,81.43
2018-09-04T00:02:50.339Z,81.01
2018-09-04T00:03:29.366Z,81.14
2018-09-04T00:04:29.439Z,81.33
2018-09-04T00:05:29.416Z,81.24
2018-09-04T00:06:29.449Z,81.04
2018-09-04T00:07:29.486Z,81.43
2018-09-04T00:08:50.507Z,80.94
2018-09-04T00:09:29.534Z,81.20
2018-09-04T00:10:29.564Z,81.10
2018-09-04T00:11:29.585Z,81.10
2018-09-04T00:12:29.608Z,81.10
2018-09-04T00:13:29.664Z,81.20
2018-09-04T00:14:50.693Z,81.58
2018-09-04T00:15:29.707Z,81.14
2018-09-04T00:16:29.722Z,81.39
2018-09-04T00:17:29.766Z,81.39
2018-09-04T00:18:29.778Z,81.10
2018-09-04T00:19:29.812Z,81.68
2018-09-04T00:20:50.883Z,81.39
2018-09-04T00:21:29.864Z,81.58
2018-09-04T00:22:29.915Z,81.58
2018-09-04T00:23:29.917Z,81.39
2018-09-04T00:24:29.961Z,81.48
2018-09-04T00:25:29.983Z,81.20
2018-09-04T00:26:51.039Z,81.20
2018-09-04T00:27:30.051Z,81.20
2018-09-04T00:28:30.085Z,81.01
2018-09-04T00:29:30.094Z,80.62
2018-09-04T00:30:30.132Z,81.01
2018-09-04T00:31:30.161Z,81.20
2018-09-04T00:32:51.200Z,81.39
2018-09-04T00:33:30.217Z,81.20
2018-09-04T00:34:30.287Z,81.39
2018-09-04T00:35:30.373Z,81.29
2018-09-04T00:36:30.296Z,80.62
2018-09-04T00:37:30.335Z,81.58
2018-09-04T00:38:51.373Z,80.71
2018-09-04T00:39:30.377Z,80.71
2018-09-04T00:40:30.413Z,81.20
2018-09-04T00:41:30.446Z,80.23
2018-09-04T00:42:30.466Z,80.23
2018-09-04T00:43:30.498Z,80.52
2018-09-04T00:44:51.541Z,81.39
2018-09-04T00:45:30.558Z,80.62
2018-09-04T00:46:30.588Z,80.52
2018-09-04T00:47:30.616Z,80.43
2018-09-04T00:48:30.644Z,80.62
2018-09-04T00:49:30.680Z,80.62
2018-09-04T00:50:51.723Z,80.43
2018-09-04T00:51:30.732Z,80.43
2018-09-04T00:52:30.774Z,80.52
2018-09-04T00:53:30.790Z,80.48
2018-09-04T00:54:30.822Z,80.71
2018-09-04T00:55:30.843Z,80.14
2018-09-04T00:56:51.902Z,79.90
2018-09-04T00:57:30.904Z,79.85
2018-09-04T00:58:30.928Z,80.52
2018-09-04T00:59:30.964Z,79.27
2018-09-04T01:00:30.991Z,79.36
2018-09-04T01:01:31.007Z,79.46
2018-09-04T01:02:52.067Z,79.66
2018-09-04T01:03:31.067Z,79.23
2018-09-04T01:04:31.099Z,79.36
2018-09-04T01:05:31.127Z,79.56
2018-09-04T01:06:31.162Z,79.56
2018-09-04T01:07:31.189Z,79.36
2018-09-04T01:08:52.966Z,79.36
2018-09-04T01:09:31.244Z,79.36
2018-09-04T01:10:31.277Z,79.27
2018-09-04T01:11:31.312Z,79.66
2018-09-04T01:12:31.326Z,79.36
2018-09-04T01:13:31.360Z,79.56
2018-09-04T01:14:52.408Z,78.94
2018-09-04T01:15:31.533Z,79.56
2018-09-04T01:16:31.444Z,78.65
2018-09-04T01:17:31.482Z,78.56
2018-09-04T01:18:31.514Z,78.94
2018-09-04T01:19:31.536Z,79.03
2018-09-04T01:20:52.579Z,78.56
2018-09-04T01:21:31.593Z,78.46
2018-09-04T01:22:31.614Z,79.03
2018-09-04T01:23:31.654Z,79.52
2018-09-04T01:24:31.684Z,78.94
2018-09-04T01:25:31.705Z,78.94
2018-09-04T01:26:52.743Z,78.94
2018-09-04T01:27:31.756Z,78.65
2018-09-04T01:28:31.799Z,79.03
2018-09-04T01:29:31.824Z,78.56
2018-09-04T01:30:31.851Z,79.33
2018-09-04T01:31:31.873Z,79.23
2018-09-04T01:32:52.920Z,78.94
2018-09-04T01:33:31.931Z,78.46
2018-09-04T01:34:31.955Z,79.43
2018-09-04T01:35:31.995Z,78.94
2018-09-04T01:36:32.008Z,79.03
2018-09-04T01:37:32.056Z,79.61
2018-09-04T01:38:53.095Z,79.61
2018-09-04T01:39:32.112Z,79.03
2018-09-04T01:40:32.128Z,79.43
2018-09-04T01:41:32.153Z,79.23
2018-09-04T01:42:32.194Z,79.61
2018-09-04T01:43:32.214Z,79.43
2018-09-04T01:44:53.262Z,79.13
2018-09-04T01:45:32.284Z,79.03
2018-09-04T01:46:32.337Z,79.03
2018-09-04T01:47:32.335Z,79.33
2018-09-04T01:48:32.406Z,79.33
2018-09-04T01:49:32.385Z,79.52
2018-09-04T01:50:53.441Z,79.43
2018-09-04T01:51:32.439Z,79.13
2018-09-04T01:52:32.466Z,79.33
2018-09-04T01:53:32.500Z,80.06
2018-09-04T01:54:32.537Z,79.90
2018-09-04T01:55:32.556Z,79.43
2018-09-04T01:56:54.440Z,79.43
2018-09-04T01:57:32.619Z,79.61
2018-09-04T01:58:32.644Z,79.13
2018-09-04T01:59:32.681Z,79.48
2018-09-04T02:00:32.704Z,80.15
2018-09-04T02:01:32.740Z,79.58
2018-09-04T02:02:53.822Z,80.00
2018-09-04T02:03:32.792Z,80.10
2018-09-04T02:04:32.828Z,79.58
2018-09-04T02:05:32.851Z,79.90
2018-09-04T02:06:32.874Z,79.77
2018-09-04T02:07:32.922Z,79.86
2018-09-04T02:08:53.945Z,79.00
2018-09-04T02:09:32.964Z,79.86
2018-09-04T02:10:32.983Z,80.06
2018-09-04T02:11:33.016Z,79.77
2018-09-04T02:12:33.062Z,80.15
2018-09-04T02:13:33.078Z,79.86
2018-09-04T02:14:54.144Z,79.77
2018-09-04T02:15:33.130Z,80.06
2018-09-04T02:16:33.166Z,79.86
2018-09-04T02:17:33.189Z,79.96
2018-09-04T02:18:33.219Z,79.77
2018-09-04T02:19:33.239Z,80.06
2018-09-04T02:20:54.278Z,80.15
2018-09-04T02:21:33.291Z,80.15
2018-09-04T02:22:33.328Z,79.77
2018-09-04T02:23:33.348Z,79.86
2018-09-04T02:24:33.375Z,79.96
2018-09-04T02:25:33.412Z,79.77
2018-09-04T02:26:54.453Z,79.77
2018-09-04T02:27:33.465Z,79.96
2018-09-04T02:28:33.526Z,80.54
2018-09-04T02:29:33.523Z,80.06
2018-09-04T02:30:33.554Z,79.67
2018-09-04T02:31:33.590Z,79.96
2018-09-04T02:32:54.669Z,79.67
2018-09-04T02:33:33.641Z,80.35
2018-09-04T02:34:33.663Z,80.06
2018-09-04T02:35:33.700Z,79.67
2018-09-04T02:36:33.735Z,79.86
2018-09-04T02:37:33.796Z,80.25
2018-09-04T02:38:54.815Z,80.06
2018-09-04T02:39:33.814Z,80.35
2018-09-04T02:40:33.842Z,80.25
2018-09-04T02:41:33.876Z,79.86
2018-09-04T02:42:33.903Z,79.77
2018-09-04T02:43:33.925Z,79.96
2018-09-04T02:44:54.972Z,79.96
2018-09-04T02:45:33.999Z,79.86
2018-09-04T02:46:34.023Z,79.86
2018-09-04T02:47:34.040Z,80.06
2018-09-04T02:48:34.178Z,79.48
2018-09-04T02:49:34.089Z,79.96
2018-09-04T02:50:55.158Z,80.25
2018-09-04T02:51:34.150Z,79.96
2018-09-04T02:52:34.184Z,80.25
2018-09-04T02:53:34.210Z,80.54
2018-09-04T02:54:34.233Z,80.11
2018-09-04T02:55:34.262Z,80.54
2018-09-04T02:56:55.317Z,80.35
2018-09-04T02:57:34.373Z,80.25
2018-09-04T02:58:34.362Z,80.54
2018-09-04T02:59:34.416Z,80.35
2018-09-04T03:00:34.414Z,80.35
2018-09-04T03:01:34.438Z,80.35
2018-09-04T03:02:55.484Z,80.44
2018-09-04T03:03:34.486Z,80.54
2018-09-04T03:04:34.524Z,80.40
2018-09-04T03:05:34.550Z,80.50
2018-09-04T03:06:34.576Z,80.69
2018-09-04T03:07:34.607Z,80.50
2018-09-04T03:08:55.646Z,80.69
2018-09-04T03:09:34.659Z,80.11
2018-09-04T03:10:34.695Z,81.17
2018-09-04T03:11:34.723Z,81.17
2018-09-04T03:12:34.743Z,81.07
2018-09-04T03:13:34.815Z,80.98
2018-09-04T03:14:55.835Z,80.60
2018-09-04T03:15:34.834Z,81.17
2018-09-04T03:16:34.854Z,81.17
2018-09-04T03:17:34.905Z,80.60
2018-09-04T03:18:34.920Z,80.40
2018-09-04T03:19:34.946Z,80.69
2018-09-04T03:20:55.997Z,80.11
2018-09-04T03:21:35.013Z,81.17
2018-09-04T03:22:35.034Z,81.07
2018-09-04T03:23:35.058Z,80.98
2018-09-04T03:24:35.087Z,80.98
2018-09-04T03:25:35.118Z,81.07
2018-09-04T03:26:56.185Z,80.98
2018-09-04T03:27:35.163Z,80.40
2018-09-04T03:28:35.205Z,81.07
2018-09-04T03:29:35.240Z,80.88
2018-09-04T03:30:35.256Z,81.07
2018-09-04T03:31:35.284Z,80.79
2018-09-04T03:32:56.347Z,81.17
2018-09-04T03:33:35.349Z,81.07
2018-09-04T03:34:35.374Z,81.07
2018-09-04T03:35:35.414Z,81.46
2018-09-04T03:36:35.423Z,80.98
2018-09-04T03:37:35.449Z,81.46
2018-09-04T03:38:56.505Z,81.07
2018-09-04T03:39:35.624Z,81.07
2018-09-04T03:40:35.545Z,80.98
2018-09-04T03:41:35.569Z,81.46
2018-09-04T03:42:35.603Z,81.27
2018-09-04T03:43:35.621Z,80.98
2018-09-04T03:44:56.667Z,80.88
2018-09-04T03:45:35.686Z,81.17
2018-09-04T03:46:35.706Z,81.07
2018-09-04T03:47:35.732Z,81.37
2018-09-04T03:48:35.759Z,81.07
2018-09-04T03:49:35.788Z,81.27
2018-09-04T03:50:56.840Z,80.98
2018-09-04T03:51:35.855Z,81.37
2018-09-04T03:52:35.879Z,80.98
2018-09-04T03:53:35.905Z,81.56
2018-09-04T03:54:35.936Z,82.14
2018-09-04T03:55:35.969Z,80.98
2018-09-04T03:56:57.004Z,81.94
2018-09-04T03:57:36.024Z,81.56
2018-09-04T03:58:36.049Z,81.07
2018-09-04T03:59:36.088Z,81.27
2018-09-04T04:00:36.104Z,82.04
2018-09-04T04:01:36.279Z,81.56
2018-09-04T04:02:57.180Z,81.07
2018-09-04T04:03:36.195Z,80.98
2018-09-04T04:04:36.212Z,81.84
2018-09-04T04:05:36.241Z,81.75
2018-09-04T04:06:36.270Z,81.94
2018-09-04T04:07:36.299Z,81.07
2018-09-04T04:08:57.338Z,81.17
2018-09-04T04:09:36.349Z,81.94
2018-09-04T04:10:36.427Z,81.27
2018-09-04T04:11:36.404Z,81.07
2018-09-04T04:12:36.454Z,81.56
2018-09-04T04:13:36.469Z,81.07
2018-09-04T04:14:57.512Z,81.65
2018-09-04T04:15:36.532Z,81.27
2018-09-04T04:16:36.551Z,81.32
2018-09-04T04:17:36.576Z,81.65
2018-09-04T04:18:36.605Z,82.14
2018-09-04T04:19:36.633Z,81.94
2018-09-04T04:20:57.703Z,81.75
2018-09-04T04:21:36.687Z,81.61
2018-09-04T04:22:36.716Z,81.42
2018-09-04T04:23:36.752Z,81.13
2018-09-04T04:24:36.782Z,81.81
2018-09-04T04:25:36.802Z,81.81
2018-09-04T04:26:57.853Z,81.61
2018-09-04T04:27:36.862Z,81.99
2018-09-04T04:28:36.901Z,82.09
2018-09-04T04:29:36.912Z,82.09
2018-09-04T04:30:36.947Z,81.81
2018-09-04T04:31:36.975Z,81.71
2018-09-04T04:32:58.103Z,81.99
2018-09-04T04:33:37.034Z,81.90
2018-09-04T04:34:37.067Z,82.67
2018-09-04T04:35:37.100Z,82.38
2018-09-04T04:36:37.131Z,82.29
2018-09-04T04:37:37.146Z,82.57
2018-09-04T04:38:58.204Z,82.57
2018-09-04T04:39:37.211Z,82.67
2018-09-04T04:40:37.223Z,82.38
2018-09-04T04:41:37.261Z,82.57
2018-09-04T04:42:37.279Z,82.57
2018-09-04T04:43:37.309Z,82.57
2018-09-04T04:44:58.369Z,82.57
2018-09-04T04:45:37.361Z,83.15
2018-09-04T04:46:37.408Z,82.86
2018-09-04T04:47:37.433Z,82.19
2018-09-04T04:48:37.460Z,82.67
2018-09-04T04:49:37.488Z,82.86
2018-09-04T04:50:58.529Z,82.96
2018-09-04T04:51:37.538Z,83.06
2018-09-04T04:52:37.572Z,83.15
2018-09-04T04:53:37.605Z,83.15
2018-09-04T04:54:37.625Z,83.15
2018-09-04T04:55:37.653Z,83.15
2018-09-04T04:56:58.695Z,83.15
2018-09-04T04:57:37.709Z,83.06
2018-09-04T04:58:37.732Z,82.96
2018-09-04T04:59:37.774Z,83.15
2018-09-04T05:00:37.793Z,82.76
2018-09-04T05:01:37.855Z,83.06
2018-09-04T05:02:58.883Z,83.06
2018-09-04T05:03:37.887Z,83.25
2018-09-04T05:04:37.899Z,83.63
2018-09-04T05:05:37.932Z,82.57
2018-09-04T05:06:37.962Z,82.76
2018-09-04T05:07:37.990Z,82.57
2018-09-04T05:08:59.032Z,83.06
2018-09-04T05:09:38.043Z,83.15
2018-09-04T05:10:38.111Z,83.63
2018-09-04T05:11:38.109Z,82.96
2018-09-04T05:12:38.140Z,82.76
2018-09-04T05:13:38.158Z,83.34
2018-09-04T05:14:59.201Z,83.63
2018-09-04T05:15:38.205Z,83.06
2018-09-04T05:16:38.230Z,82.96
2018-09-04T05:17:38.267Z,82.96
2018-09-04T05:18:38.345Z,82.76
2018-09-04T05:19:38.319Z,82.48
2018-09-04T05:20:59.412Z,82.86
2018-09-04T05:21:38.401Z,82.86
2018-09-04T05:22:38.478Z,82.96
2018-09-04T05:23:38.482Z,83.15
2018-09-04T05:24:38.453Z,83.06
2018-09-04T05:25:38.488Z,83.15
2018-09-04T05:26:59.555Z,82.96
2018-09-04T05:27:38.543Z,82.96
2018-09-04T05:28:38.575Z,82.96
2018-09-04T05:29:38.607Z,82.76
2018-09-04T05:30:38.630Z,83.53
2018-09-04T05:31:38.676Z,82.86
2018-09-04T05:32:59.700Z,82.86
2018-09-04T05:33:38.722Z,82.19
2018-09-04T05:34:38.756Z,82.86
2018-09-04T05:35:38.770Z,82.48
2018-09-04T05:36:38.814Z,82.38
2018-09-04T05:37:38.824Z,82.96
2018-09-04T05:38:59.890Z,82.96
2018-09-04T05:39:38.881Z,82.96
2018-09-04T05:40:39.153Z,83.25
2018-09-04T05:41:38.940Z,83.44
2018-09-04T05:42:38.965Z,83.06
2018-09-04T05:43:38.993Z,83.25
2018-09-04T05:45:00.038Z,82.96
2018-09-04T05:45:39.053Z,82.38
2018-09-04T05:46:39.082Z,82.29
2018-09-04T05:47:39.105Z,82.57
2018-09-04T05:48:39.133Z,82.38
2018-09-04T05:49:39.172Z,82.38
2018-09-04T05:51:00.212Z,83.06
2018-09-04T05:51:39.232Z,82.38
2018-09-04T05:52:39.237Z,82.67
2018-09-04T05:53:39.283Z,82.57
2018-09-04T05:54:39.299Z,82.48
2018-09-04T05:55:39.324Z,82.86
2018-09-04T05:57:00.387Z,82.57
2018-09-04T05:57:39.397Z,82.96
2018-09-04T05:58:39.615Z,82.96
2018-09-04T05:59:40.039Z,82.38
2018-09-04T06:00:40.043Z,82.48
2018-09-04T06:01:39.517Z,82.57
2018-09-04T06:03:00.558Z,81.99
2018-09-04T06:03:39.621Z,82.29
2018-09-04T06:04:39.585Z,82.67
2018-09-04T06:05:39.606Z,82.19
2018-09-04T06:06:39.641Z,83.06
2018-09-04T06:07:39.677Z,82.86
2018-09-04T06:09:00.716Z,82.76
2018-09-04T06:09:39.722Z,83.44
2018-09-04T06:10:39.763Z,82.29
2018-09-04T06:11:39.783Z,82.48
2018-09-04T06:12:39.825Z,82.48
2018-09-04T06:13:39.897Z,82.38
2018-09-04T06:15:00.900Z,82.76
2018-09-04T06:15:39.893Z,83.15
2018-09-04T06:16:39.917Z,82.86
2018-09-04T06:17:39.957Z,83.25
2018-09-04T06:18:39.968Z,83.06
2018-09-04T06:19:40.002Z,82.96
2018-09-04T06:21:01.149Z,82.86
2018-09-04T06:21:40.077Z,83.63
2018-09-04T06:22:40.098Z,83.53
2018-09-04T06:23:40.219Z,83.73
2018-09-04T06:24:40.145Z,83.53
2018-09-04T06:25:40.193Z,83.53
2018-09-04T06:27:01.228Z,83.25
2018-09-04T06:27:40.237Z,83.53
2018-09-04T06:28:40.254Z,83.34
2018-09-04T06:29:40.363Z,82.96
2018-09-04T06:30:40.317Z,82.96
2018-09-04T06:31:40.368Z,82.29
2018-09-04T06:33:01.387Z,82.96
2018-09-04T06:33:40.390Z,82.29
2018-09-04T06:34:41.026Z,82.38
2018-09-04T06:35:40.466Z,83.15
2018-09-04T06:36:40.543Z,82.29
2018-09-04T06:37:40.512Z,82.86
2018-09-04T06:39:01.551Z,83.00
2018-09-04T06:39:40.571Z,82.96
2018-09-04T06:40:40.605Z,83.06
2018-09-04T06:41:40.657Z,82.14
2018-09-04T06:42:40.643Z,82.71
2018-09-04T06:43:40.671Z,83.06
2018-09-04T06:45:01.827Z,83.25
2018-09-04T06:45:40.732Z,83.53
2018-09-04T06:46:40.835Z,83.25
2018-09-04T06:47:40.794Z,83.44
2018-09-04T06:48:40.819Z,83.73
2018-09-04T06:49:40.839Z,83.83
2018-09-04T06:51:01.894Z,83.73
2018-09-04T06:51:40.894Z,83.44
2018-09-04T06:52:41.059Z,83.63
2018-09-04T06:53:40.964Z,83.63
2018-09-04T06:54:41.029Z,83.53
2018-09-04T06:55:41.008Z,83.53
2018-09-04T06:57:02.098Z,83.53
2018-09-04T06:57:41.114Z,83.53
2018-09-04T06:58:41.101Z,83.44
2018-09-04T06:59:41.148Z,83.15
2018-09-04T07:00:41.251Z,83.44
2018-09-04T07:01:41.172Z,83.29
2018-09-04T07:03:02.230Z,83.58
2018-09-04T07:03:41.238Z,82.61
2018-09-04T07:04:41.260Z,83.19
2018-09-04T07:05:41.307Z,83.19
2018-09-04T07:06:41.340Z,82.32
2018-09-04T07:07:41.344Z,82.61
2018-09-04T07:09:02.389Z,82.42
2018-09-04T07:09:41.402Z,82.61
2018-09-04T07:10:41.430Z,82.32
2018-09-04T07:11:41.459Z,81.75
2018-09-04T07:12:41.481Z,82.08
2018-09-04T07:13:41.526Z,81.65
2018-09-04T07:15:02.567Z,82.08
2018-09-04T07:15:41.570Z,81.50
2018-09-04T07:16:41.585Z,81.40
2018-09-04T07:17:41.631Z,82.08
2018-09-04T07:18:41.656Z,81.98
2018-09-04T07:19:41.686Z,81.60
2018-09-04T07:21:02.742Z,81.88
2018-09-04T07:21:41.740Z,82.56
2018-09-04T07:22:41.765Z,81.70
2018-09-04T07:23:41.798Z,81.60
2018-09-04T07:24:41.814Z,82.56
2018-09-04T07:25:41.958Z,81.79
2018-09-04T07:27:02.893Z,81.88
2018-09-04T07:27:41.985Z,81.88
2018-09-04T07:28:41.935Z,81.40
2018-09-04T07:29:41.958Z,81.21
2018-09-04T07:30:41.997Z,80.73
2018-09-04T07:31:42.023Z,81.25
2018-09-04T07:33:03.068Z,81.54
2018-09-04T07:33:42.081Z,80.87
2018-09-04T07:34:42.102Z,81.06
2018-09-04T07:35:42.137Z,81.35
2018-09-04T07:36:42.263Z,80.58
2018-09-04T07:37:42.188Z,80.48
2018-09-04T07:39:03.257Z,80.10
2018-09-04T07:39:42.262Z,79.71
2018-09-04T07:40:42.279Z,80.48
2018-09-04T07:41:42.304Z,80.19
2018-09-04T07:42:42.317Z,80.19
2018-09-04T07:43:42.358Z,79.81
2018-09-04T07:45:03.410Z,80.14
2018-09-04T07:45:42.418Z,79.75
2018-09-04T07:46:42.440Z,79.75
2018-09-04T07:47:42.556Z,79.85
2018-09-04T07:48:42.494Z,79.27
2018-09-04T07:49:42.530Z,79.27
2018-09-04T07:51:03.574Z,79.17
2018-09-04T07:51:42.581Z,79.56
2018-09-04T07:52:42.611Z,79.08
2018-09-04T07:53:42.723Z,78.69
2018-09-04T07:54:42.659Z,79.02
2018-09-04T07:55:42.694Z,78.40
2018-09-04T07:57:03.748Z,78.83
2018-09-04T07:57:42.747Z,78.44
2018-09-04T07:58:42.840Z,78.25
2018-09-04T07:59:42.803Z,78.44
2018-09-04T08:00:42.848Z,77.86
2018-09-04T08:01:42.858Z,78.15
2018-09-04T08:03:03.907Z,77.86
2018-09-04T08:03:42.914Z,77.96
2018-09-04T08:04:42.952Z,77.28
2018-09-04T08:05:42.978Z,78.09
2018-09-04T08:06:43.007Z,77.81
2018-09-04T08:07:43.037Z,76.84
2018-09-04T08:09:04.075Z,76.84
2018-09-04T08:09:43.089Z,76.36
2018-09-04T08:10:43.117Z,76.45
2018-09-04T08:11:43.150Z,76.36
2018-09-04T08:12:43.170Z,75.92
2018-09-04T08:13:43.193Z,75.53
2018-09-04T08:15:04.251Z,75.62
2018-09-04T08:15:43.276Z,75.53
2018-09-04T08:16:43.292Z,75.53
2018-09-04T08:17:43.331Z,75.14
2018-09-04T08:18:43.356Z,75.05
2018-09-04T08:19:43.402Z,75.09
2018-09-04T08:21:04.422Z,74.12
2018-09-04T08:21:43.462Z,74.69
2018-09-04T08:22:43.467Z,73.86
2018-09-04T08:23:43.548Z,73.38
2018-09-04T08:24:43.527Z,72.71
2018-09-04T08:25:43.541Z,73.00
2018-09-04T08:27:04.690Z,72.03
2018-09-04T08:27:43.614Z,71.00
2018-09-04T08:28:43.636Z,71.30
2018-09-04T08:29:43.665Z,71.14
2018-09-04T08:30:43.684Z,70.07
2018-09-04T08:31:43.717Z,69.04
2018-09-04T08:33:04.777Z,68.08
2018-09-04T08:33:43.769Z,68.40
2018-09-04T08:34:43.803Z,67.46
2018-09-04T08:35:43.837Z,66.82
2018-09-04T08:36:43.979Z,65.47
2018-09-04T08:37:43.898Z,65.56
2018-09-04T08:39:04.937Z,64.53
2018-09-04T08:39:44.052Z,64.62
2018-09-04T08:40:43.973Z,63.17
2018-09-04T08:41:44.007Z,62.82
2018-09-04T08:42:44.045Z,62.62
2018-09-04T08:43:44.063Z,62.75
2018-09-04T08:45:05.113Z,61.49
2018-09-04T08:45:44.127Z,60.64
2018-09-04T08:46:44.158Z,60.45
2018-09-04T08:47:44.327Z,59.70
2018-09-04T08:48:44.216Z,60.03
2018-09-04T08:49:44.236Z,60.03
2018-09-04T08:51:05.374Z,60.45
2018-09-04T08:51:44.307Z,59.31
2018-09-04T08:52:44.357Z,59.28
2018-09-04T08:53:44.378Z,59.38
2018-09-04T08:54:44.422Z,59.84
2018-09-04T08:55:44.430Z,60.42
2018-09-04T08:57:05.468Z,60.91
2018-09-04T08:57:44.491Z,60.55
2018-09-04T08:58:44.589Z,62.07
2018-09-04T08:59:44.580Z,62.75
2018-09-04T09:00:44.601Z,63.40
2018-09-04T09:01:44.588Z,63.89
2018-09-04T09:03:05.700Z,65.63
2018-09-04T09:03:44.667Z,66.69
2018-09-04T09:04:44.687Z,66.50
2018-09-04T09:05:44.710Z,65.72
2018-09-04T09:06:44.765Z,65.50
2018-09-04T09:07:44.801Z,66.17
2018-09-04T09:09:05.836Z,67.53
2018-09-04T09:09:44.840Z,68.30
2018-09-04T09:10:44.980Z,68.17
2018-09-04T09:11:44.881Z,68.17
2018-09-04T09:12:44.948Z,68.46
2018-09-04T09:13:44.960Z,67.79
2018-09-04T09:15:05.984Z,68.37
2018-09-04T09:15:45.011Z,68.27
2018-09-04T09:16:45.170Z,68.66
2018-09-04T09:17:45.074Z,68.69
2018-09-04T09:18:45.117Z,68.21
2018-09-04T09:19:45.111Z,67.43
2018-09-04T09:21:06.247Z,68.01
2018-09-04T09:21:45.156Z,67.63
2018-09-04T09:22:45.256Z,67.82
2018-09-04T09:23:45.226Z,66.75
2018-09-04T09:24:45.276Z,66.47
2018-09-04T09:25:45.380Z,67.82
2018-09-04T09:27:07.069Z,67.08
2018-09-04T09:27:45.438Z,67.27
2018-09-04T09:28:45.439Z,67.46
2018-09-04T09:29:45.396Z,66.82
2018-09-04T09:30:45.432Z,67.11
2018-09-04T09:31:45.450Z,66.34
2018-09-04T09:33:06.574Z,65.89
2018-09-04T09:33:45.598Z,65.43
2018-09-04T09:34:45.572Z,65.05
2018-09-04T09:35:45.632Z,63.43
2018-09-04T09:36:45.669Z,63.23
2018-09-04T09:37:45.655Z,64.50
2018-09-04T09:39:06.685Z,62.85
2018-09-04T09:39:45.702Z,63.04
2018-09-04T09:40:45.732Z,62.75
2018-09-04T09:41:45.744Z,62.75
2018-09-04T09:42:45.771Z,61.17
2018-09-04T09:43:45.806Z,62.82
2018-09-04T09:45:06.855Z,63.98
2018-09-04T09:45:45.859Z,64.01
2018-09-04T09:46:45.907Z,64.01
2018-09-04T09:47:45.942Z,62.29
2018-09-04T09:48:45.960Z,61.52
2018-09-04T09:49:45.988Z,60.64
2018-09-04T09:51:07.084Z,60.87
2018-09-04T09:51:46.115Z,59.41
2018-09-04T09:52:46.234Z,60.02
2018-09-04T09:53:46.239Z,60.48
2018-09-04T09:54:46.228Z,60.06
2018-09-04T09:55:46.245Z,60.64
2018-09-04T09:57:07.250Z,61.49
2018-09-04T09:57:46.229Z,62.29
2018-09-04T09:58:46.363Z,60.74
2018-09-04T09:59:46.391Z,58.00
2018-09-04T10:00:46.385Z,59.77
2018-09-04T10:01:46.420Z,59.70
2018-09-04T10:03:07.480Z,58.57
2018-09-04T10:03:46.506Z,57.72
2018-09-04T10:04:46.490Z,56.20
2018-09-04T10:05:46.486Z,54.79
2018-09-04T10:06:46.494Z,55.23
2018-09-04T10:07:46.738Z,53.21
2018-09-04T10:09:07.573Z,52.53
2018-09-04T10:09:46.700Z,52.73
2018-09-04T10:10:46.618Z,53.09
2018-09-04T10:11:46.651Z,53.55
2018-09-04T10:12:46.679Z,52.67
2018-09-04T10:13:46.758Z,53.06
2018-09-04T10:15:07.783Z,53.33
2018-09-04T10:15:46.774Z,54.50
2018-09-04T10:16:46.793Z,54.50
2018-09-04T10:17:46.828Z,53.33
2018-09-04T10:18:46.858Z,54.52
2018-09-04T10:19:46.899Z,54.21
2018-09-04T10:21:07.950Z,53.06
2018-09-04T10:21:46.953Z,53.72
2018-09-04T10:22:46.998Z,54.40
2018-09-04T10:23:47.033Z,55.37
2018-09-04T10:24:47.054Z,54.99
2018-09-04T10:25:47.073Z,56.57
2018-09-04T10:27:09.126Z,54.06
2018-09-04T10:27:47.145Z,54.77
2018-09-04T10:28:47.165Z,51.58
2018-09-04T10:29:47.196Z,50.87
2018-09-04T10:30:47.262Z,50.51
2018-09-04T10:31:47.278Z,50.34
2018-09-04T10:33:08.312Z,49.61
2018-09-04T10:33:47.328Z,49.16
2018-09-04T10:34:47.363Z,46.33
2018-09-04T10:35:47.377Z,46.26
2018-09-04T10:36:47.438Z,45.76
2018-09-04T10:37:47.451Z,46.20
2018-09-04T10:39:08.493Z,45.44
2018-09-04T10:39:47.508Z,45.27
2018-09-04T10:40:47.549Z,43.51
2018-09-04T10:41:47.589Z,42.05
2018-09-04T10:42:47.625Z,42.25
2018-09-04T10:43:47.638Z,41.88
2018-09-04T10:45:08.713Z,41.02
2018-09-04T10:45:47.701Z,42.25
2018-09-04T10:46:47.725Z,42.46
2018-09-04T10:47:47.759Z,43.95
2018-09-04T10:48:47.785Z,47.00
2018-09-04T10:49:47.817Z,49.29
2018-09-04T10:51:08.884Z,50.09
2018-09-04T10:51:47.888Z,48.49
2018-09-04T10:52:47.923Z,46.60
2018-09-04T10:53:47.950Z,43.91
2018-09-04T10:54:47.982Z,44.30
2018-09-04T10:55:48.015Z,44.71
2018-09-04T10:57:09.073Z,43.76
2018-09-04T10:57:48.168Z,42.76
2018-09-04T10:58:48.121Z,44.18
2018-09-04T10:59:48.138Z,44.06
2018-09-04T11:00:48.179Z,44.43
2018-09-04T11:01:48.213Z,45.80
2018-09-04T11:03:09.264Z,46.11
2018-09-04T11:03:48.258Z,43.89
2018-09-04T11:04:48.299Z,44.32
2018-09-04T11:05:48.350Z,44.09
2018-09-04T11:06:48.370Z,43.95
2018-09-04T11:07:48.460Z,47.51
2018-09-04T11:09:09.474Z,46.61
2018-09-04T11:09:48.668Z,46.78
2018-09-04T11:10:48.485Z,46.66
2018-09-04T11:11:48.542Z,48.56
2018-09-04T11:12:48.558Z,51.40
2018-09-04T11:13:48.602Z,53.69
2018-09-04T11:15:09.659Z,54.53
2018-09-04T11:15:48.655Z,54.72
2018-09-04T11:16:48.733Z,56.09
2018-09-04T11:17:48.710Z,55.31
2018-09-04T11:18:48.746Z,56.86
2018-09-04T11:19:48.777Z,55.27
2018-09-04T11:21:09.838Z,52.59
2018-09-04T11:21:48.840Z,51.17
2018-09-04T11:22:48.872Z,49.85
2018-09-04T11:23:48.918Z,48.24
2018-09-04T11:24:48.937Z,46.80
2018-09-04T11:25:48.962Z,48.02
2018-09-04T11:27:10.026Z,48.61
2018-09-04T11:27:49.047Z,48.22
2018-09-04T11:28:49.060Z,48.49
2018-09-04T11:29:49.093Z,50.14
2018-09-04T11:30:49.275Z,49.22
2018-09-04T11:31:49.178Z,47.41
2018-09-04T11:33:10.229Z,45.95
2018-09-04T11:33:49.233Z,46.14
2018-09-04T11:34:49.285Z,46.24
2018-09-04T11:35:49.311Z,41.62
2018-09-04T11:36:49.377Z,39.29
2018-09-04T11:37:49.375Z,43.13
2018-09-04T11:39:10.452Z,44.09
2018-09-04T11:39:49.439Z,44.74
2018-09-04T11:40:49.485Z,45.31
2018-09-04T11:41:49.502Z,43.75
2018-09-04T11:42:49.539Z,43.16
2018-09-04T11:43:49.568Z,46.24
2018-09-04T11:45:10.654Z,48.56
2018-09-04T11:45:49.652Z,47.36
2018-09-04T11:46:49.685Z,50.26
2018-09-04T11:47:49.712Z,49.39
2018-09-04T11:48:49.755Z,51.51
2018-09-04T11:49:49.785Z,50.92
2018-09-04T11:51:10.835Z,51.39
2018-09-04T11:51:49.857Z,52.55
2018-09-04T11:52:49.893Z,52.23
2018-09-04T11:53:49.919Z,52.47
2018-09-04T11:54:49.998Z,52.47
2018-09-04T11:55:50.004Z,52.67
2018-09-04T11:57:11.062Z,54.32
2018-09-04T11:57:50.077Z,56.07
2018-09-04T11:58:50.091Z,55.39
2018-09-04T11:59:50.120Z,55.49
2018-09-04T12:00:50.165Z,54.07
2018-09-04T12:01:51.148Z,54.24
2018-09-04T12:03:11.243Z,55.77
2018-09-04T12:03:50.257Z,55.67
2018-09-04T12:04:50.301Z,57.22
2018-09-04T12:05:50.370Z,57.70
2018-09-04T12:06:50.369Z,58.77
2018-09-04T12:07:50.404Z,58.48
2018-09-04T12:09:11.451Z,53.97
2018-09-04T12:09:50.458Z,56.60
2018-09-04T12:10:50.503Z,55.04
2018-09-04T12:11:50.532Z,53.42
2018-09-04T12:12:50.652Z,53.20
2018-09-04T12:13:50.599Z,54.82
2018-09-04T12:15:11.636Z,54.60
2018-09-04T12:15:50.647Z,54.99
2018-09-04T12:16:50.691Z,55.67
2018-09-04T12:17:50.726Z,55.08
2018-09-04T12:18:50.749Z,55.38
2018-09-04T12:19:50.791Z,56.15
2018-09-04T12:21:11.870Z,55.67
2018-09-04T12:21:50.902Z,54.60
2018-09-04T12:22:50.868Z,54.28
2018-09-04T12:23:50.899Z,54.67
2018-09-04T12:24:50.934Z,55.16
2018-09-04T12:25:50.959Z,55.16
2018-09-04T12:27:12.087Z,54.77
2018-09-04T12:27:51.043Z,54.67
2018-09-04T12:28:51.104Z,55.64
2018-09-04T12:29:51.095Z,54.96
2018-09-04T12:30:51.127Z,52.66
2018-09-04T12:31:51.155Z,51.04
2018-09-04T12:33:12.208Z,55.67
2018-09-04T12:33:51.252Z,54.80
2018-09-04T12:34:51.235Z,55.38
2018-09-04T12:35:51.273Z,55.35
2018-09-04T12:36:51.305Z,54.67
2018-09-04T12:37:51.335Z,54.67
2018-09-04T12:39:13.184Z,55.54
2018-09-04T12:39:51.411Z,55.44
2018-09-04T12:40:51.428Z,56.03
2018-09-04T12:41:51.457Z,56.23
2018-09-04T12:42:51.518Z,56.41
2018-09-04T12:43:51.534Z,57.07
2018-09-04T12:45:12.573Z,56.59
2018-09-04T12:45:51.583Z,56.39
2018-09-04T12:46:51.623Z,56.20
2018-09-04T12:47:51.689Z,57.84
2018-09-04T12:48:51.673Z,57.19
2018-09-04T12:49:51.703Z,58.65
2018-09-04T12:51:12.747Z,56.39
2018-09-04T12:51:51.763Z,56.39
2018-09-04T12:52:51.809Z,57.17